LZB565 LBSF-LICC
Flight info
| Callsign | LZB565 |
|---|---|
| Flight time | 1h 39m |
| Altitude | 36000 |
| Route | NAPET T214 SIN DCT BITLA/N0452F350 UN731 KAS/N0452F360 DCT RUTOM/N0456F350 DCT DODEL DCT PIMOR |
| Aircraft | A320/M-SDE3FGHIRWY/LB1 |
Departure
| Time | 2026-04-30 18:09 |
|---|---|
| Airport | Sofia Airport (LBSF) |
Arrival
| Time | 2026-04-30 19:48 |
|---|---|
| Airport | Catania-Fontanarossa Airport (LICC) |
| Time | Latitude | Longitude | Altitude | Speed | Heading |
|---|---|---|---|---|---|
| 2026-04-30 17:50 | 42.68996 | 23.40684 | 1749 ft | 0 kts | 196° |
| 2026-04-30 18:00 | 42.68991 | 23.40682 | 1749 ft | 4 kts | 196° |
| 2026-04-30 18:01 | 42.68981 | 23.40521 | 1745 ft | 15 kts | 285° |
| 2026-04-30 18:02 | 42.69095 | 23.39966 | 1748 ft | 22 kts | 278° |
| 2026-04-30 18:02 | 42.69353 | 23.39558 | 1742 ft | 25 kts | 5° |
| 2026-04-30 18:03 | 42.69528 | 23.39578 | 1747 ft | 0 kts | 5° |
| 2026-04-30 18:05 | 42.69667 | 23.39593 | 1748 ft | 8 kts | 4° |
| 2026-04-30 18:06 | 42.69766 | 23.39650 | 1745 ft | 11 kts | 69° |
| 2026-04-30 18:07 | 42.69769 | 23.39700 | 1747 ft | 0 kts | 95° |
| 2026-04-30 18:08 | 42.69683 | 23.41189 | 1750 ft | 151 kts | 94° |
| 2026-04-30 18:09 | 42.69192 | 23.48207 | 4160 ft | 208 kts | 92° |
| 2026-04-30 18:10 | 42.65411 | 23.54662 | 6150 ft | 285 kts | 179° |
| 2026-04-30 18:11 | 42.57266 | 23.53449 | 9360 ft | 298 kts | 184° |
| 2026-04-30 18:11 | 42.51484 | 23.50696 | 11377 ft | 309 kts | 225° |
| 2026-04-30 18:12 | 42.47634 | 23.42814 | 12229 ft | 354 kts | 242° |
| 2026-04-30 18:13 | 42.45095 | 23.37041 | 13632 ft | 359 kts | 242° |
| 2026-04-30 18:13 | 42.41665 | 23.29293 | 15393 ft | 361 kts | 241° |
| 2026-04-30 18:14 | 42.38629 | 23.22479 | 16926 ft | 362 kts | 241° |
| 2026-04-30 18:15 | 42.34712 | 23.13703 | 18822 ft | 365 kts | 241° |
| 2026-04-30 18:15 | 42.30770 | 23.04892 | 20426 ft | 368 kts | 241° |
| 2026-04-30 18:16 | 42.28105 | 22.98961 | 21440 ft | 370 kts | 240° |
| 2026-04-30 18:16 | 42.25324 | 22.93086 | 22425 ft | 373 kts | 240° |
| 2026-04-30 18:17 | 42.23903 | 22.90151 | 22906 ft | 374 kts | 240° |
| 2026-04-30 18:17 | 42.22479 | 22.87209 | 23369 ft | 375 kts | 240° |
| 2026-04-30 18:17 | 42.19632 | 22.81286 | 24129 ft | 377 kts | 240° |
| 2026-04-30 18:18 | 42.18205 | 22.78306 | 24460 ft | 379 kts | 240° |
| 2026-04-30 18:18 | 42.16772 | 22.75313 | 24802 ft | 380 kts | 240° |
| 2026-04-30 18:18 | 42.15337 | 22.72320 | 25118 ft | 381 kts | 240° |
| 2026-04-30 18:18 | 42.13891 | 22.69311 | 25418 ft | 383 kts | 240° |
| 2026-04-30 18:19 | 42.12438 | 22.66291 | 25740 ft | 384 kts | 240° |
| 2026-04-30 18:19 | 42.10979 | 22.63267 | 26038 ft | 386 kts | 240° |
| 2026-04-30 18:19 | 42.09515 | 22.60232 | 26328 ft | 387 kts | 240° |
| 2026-04-30 18:19 | 42.08046 | 22.57190 | 26621 ft | 389 kts | 240° |
| 2026-04-30 18:20 | 42.06572 | 22.54133 | 26912 ft | 390 kts | 240° |
| 2026-04-30 18:20 | 42.05113 | 22.51100 | 27178 ft | 391 kts | 240° |
| 2026-04-30 18:20 | 42.03631 | 22.48021 | 27439 ft | 393 kts | 240° |
| 2026-04-30 18:20 | 42.02139 | 22.44930 | 27693 ft | 394 kts | 240° |
| 2026-04-30 18:21 | 42.00643 | 22.41841 | 27965 ft | 396 kts | 240° |
| 2026-04-30 18:21 | 41.99101 | 22.38761 | 28240 ft | 398 kts | 237° |
| 2026-04-30 18:21 | 41.97229 | 22.35981 | 28462 ft | 405 kts | 227° |
| 2026-04-30 18:21 | 41.94982 | 22.33644 | 28710 ft | 412 kts | 221° |
| 2026-04-30 18:22 | 41.92612 | 22.31458 | 28944 ft | 413 kts | 221° |
| 2026-04-30 18:22 | 41.87890 | 22.27101 | 29577 ft | 410 kts | 221° |
| 2026-04-30 18:22 | 41.86332 | 22.25658 | 29784 ft | 409 kts | 221° |
| 2026-04-30 18:23 | 41.83993 | 22.23486 | 30104 ft | 408 kts | 221° |
| 2026-04-30 18:23 | 41.81655 | 22.21317 | 30402 ft | 407 kts | 221° |
| 2026-04-30 18:23 | 41.78568 | 22.18460 | 30722 ft | 407 kts | 221° |
| 2026-04-30 18:23 | 41.76999 | 22.17009 | 30877 ft | 406 kts | 221° |
| 2026-04-30 18:24 | 41.72344 | 22.12711 | 31334 ft | 406 kts | 221° |
| 2026-04-30 18:24 | 41.70012 | 22.10561 | 31572 ft | 407 kts | 221° |
| 2026-04-30 18:24 | 41.67681 | 22.08415 | 31795 ft | 407 kts | 221° |
| 2026-04-30 18:25 | 41.65349 | 22.06268 | 32030 ft | 407 kts | 221° |
| 2026-04-30 18:25 | 41.60680 | 22.01982 | 32508 ft | 407 kts | 221° |
| 2026-04-30 18:25 | 41.58341 | 21.99842 | 32743 ft | 407 kts | 221° |
| 2026-04-30 18:26 | 41.53698 | 21.95595 | 33212 ft | 407 kts | 221° |
| 2026-04-30 18:26 | 41.51367 | 21.93461 | 33430 ft | 407 kts | 221° |
| 2026-04-30 18:26 | 41.49029 | 21.91321 | 33649 ft | 407 kts | 221° |
| 2026-04-30 18:27 | 41.44352 | 21.87047 | 34085 ft | 407 kts | 221° |
| 2026-04-30 18:27 | 41.42013 | 21.84918 | 34310 ft | 407 kts | 221° |
| 2026-04-30 18:28 | 41.37329 | 21.80670 | 34688 ft | 408 kts | 221° |
| 2026-04-30 18:28 | 41.34983 | 21.78540 | 34885 ft | 408 kts | 221° |
| 2026-04-30 18:28 | 41.30289 | 21.74267 | 35179 ft | 410 kts | 221° |
| 2026-04-30 18:29 | 41.27927 | 21.72114 | 35334 ft | 411 kts | 221° |
| 2026-04-30 18:29 | 41.20848 | 21.65710 | 35737 ft | 413 kts | 221° |
| 2026-04-30 18:30 | 41.16088 | 21.61427 | 36000 ft | 414 kts | 221° |
| 2026-04-30 18:30 | 41.11317 | 21.57125 | 36238 ft | 415 kts | 221° |
| 2026-04-30 18:31 | 41.04116 | 21.50637 | 36253 ft | 418 kts | 221° |
| 2026-04-30 18:32 | 40.96891 | 21.44166 | 36242 ft | 418 kts | 221° |
| 2026-04-30 18:33 | 40.89616 | 21.37726 | 36228 ft | 422 kts | 216° |
| 2026-04-30 18:33 | 40.83980 | 21.35080 | 36209 ft | 441 kts | 196° |
| 2026-04-30 18:33 | 40.80932 | 21.34499 | 36203 ft | 443 kts | 195° |
| 2026-04-30 18:34 | 40.71809 | 21.32747 | 36182 ft | 443 kts | 196° |
| 2026-04-30 18:35 | 40.65701 | 21.31541 | 36173 ft | 444 kts | 196° |
| 2026-04-30 18:35 | 40.59587 | 21.30340 | 36160 ft | 444 kts | 195° |
| 2026-04-30 18:36 | 40.50412 | 21.28558 | 36141 ft | 443 kts | 197° |
| 2026-04-30 18:36 | 40.44715 | 21.26010 | 36130 ft | 425 kts | 216° |
| 2026-04-30 18:37 | 40.42262 | 21.23915 | 36125 ft | 417 kts | 225° |
| 2026-04-30 18:37 | 40.38005 | 21.18839 | 36113 ft | 413 kts | 229° |
| 2026-04-30 18:38 | 40.33786 | 21.13686 | 36104 ft | 414 kts | 229° |
| 2026-04-30 18:38 | 40.29578 | 21.08576 | 36094 ft | 415 kts | 229° |
| 2026-04-30 18:39 | 40.25336 | 21.03434 | 36088 ft | 416 kts | 229° |
| 2026-04-30 18:39 | 40.21098 | 20.98289 | 36079 ft | 416 kts | 229° |
| 2026-04-30 18:40 | 40.16853 | 20.93140 | 36068 ft | 416 kts | 229° |
| 2026-04-30 18:40 | 40.12598 | 20.87989 | 36059 ft | 417 kts | 229° |
| 2026-04-30 18:41 | 40.08336 | 20.82842 | 36055 ft | 417 kts | 229° |
| 2026-04-30 18:41 | 40.04065 | 20.77698 | 36048 ft | 418 kts | 229° |
| 2026-04-30 18:42 | 39.99785 | 20.72557 | 36051 ft | 418 kts | 229° |
| 2026-04-30 18:42 | 39.93354 | 20.64848 | 36043 ft | 419 kts | 229° |
| 2026-04-30 18:45 | 39.69713 | 20.36632 | 36029 ft | 420 kts | 229° |
| 2026-04-30 18:46 | 39.65390 | 20.31512 | 36026 ft | 421 kts | 229° |
| 2026-04-30 18:46 | 39.61162 | 20.26517 | 36027 ft | 421 kts | 229° |
| 2026-04-30 18:47 | 39.56824 | 20.21384 | 36030 ft | 422 kts | 229° |
| 2026-04-30 18:47 | 39.52482 | 20.16270 | 36027 ft | 422 kts | 229° |
| 2026-04-30 18:48 | 39.48135 | 20.11157 | 36029 ft | 422 kts | 229° |
| 2026-04-30 18:48 | 39.43813 | 20.06066 | 36030 ft | 422 kts | 229° |
| 2026-04-30 18:49 | 39.39433 | 20.00915 | 36027 ft | 423 kts | 229° |
| 2026-04-30 18:49 | 39.35097 | 19.95840 | 36028 ft | 423 kts | 229° |
| 2026-04-30 18:50 | 39.30721 | 19.90730 | 36033 ft | 424 kts | 229° |
| 2026-04-30 18:50 | 39.26350 | 19.85624 | 36032 ft | 424 kts | 229° |
| 2026-04-30 18:51 | 39.21961 | 19.80514 | 36037 ft | 424 kts | 229° |
| 2026-04-30 18:51 | 39.17576 | 19.75417 | 36034 ft | 425 kts | 229° |
| 2026-04-30 18:52 | 39.13207 | 19.70347 | 36036 ft | 425 kts | 229° |
| 2026-04-30 18:52 | 39.08807 | 19.65250 | 36040 ft | 425 kts | 229° |
| 2026-04-30 18:53 | 39.04410 | 19.60153 | 36038 ft | 426 kts | 229° |
| 2026-04-30 18:53 | 38.99996 | 19.55047 | 36044 ft | 426 kts | 229° |
| 2026-04-30 18:54 | 38.95583 | 19.49955 | 36045 ft | 426 kts | 229° |
| 2026-04-30 18:54 | 38.91162 | 19.44870 | 36049 ft | 427 kts | 229° |
| 2026-04-30 18:55 | 38.86728 | 19.39790 | 36049 ft | 427 kts | 229° |
| 2026-04-30 18:55 | 38.80082 | 19.32167 | 36059 ft | 427 kts | 229° |
| 2026-04-30 18:56 | 38.73426 | 19.24546 | 36055 ft | 428 kts | 229° |
| 2026-04-30 18:57 | 38.66780 | 19.16978 | 36056 ft | 428 kts | 229° |
| 2026-04-30 18:57 | 38.62332 | 19.11917 | 36055 ft | 428 kts | 229° |
| 2026-04-30 18:58 | 38.55653 | 19.04324 | 36056 ft | 428 kts | 229° |
| 2026-04-30 18:59 | 38.50440 | 18.95546 | 36054 ft | 405 kts | 254° |
| 2026-04-30 19:00 | 38.46308 | 18.82230 | 36054 ft | 405 kts | 254° |
| 2026-04-30 19:01 | 38.42122 | 18.68891 | 36060 ft | 405 kts | 254° |
| 2026-04-30 19:02 | 38.38976 | 18.58905 | 36066 ft | 405 kts | 254° |
| 2026-04-30 19:03 | 38.34771 | 18.45597 | 36081 ft | 404 kts | 254° |
| 2026-04-30 19:04 | 38.30557 | 18.32315 | 36084 ft | 404 kts | 254° |
| 2026-04-30 19:05 | 38.26330 | 18.19050 | 36087 ft | 404 kts | 254° |
| 2026-04-30 19:06 | 38.22084 | 18.05808 | 36085 ft | 404 kts | 254° |
| 2026-04-30 19:06 | 38.18908 | 17.95942 | 36091 ft | 404 kts | 253° |
| 2026-04-30 19:07 | 38.15712 | 17.86044 | 36092 ft | 403 kts | 253° |
| 2026-04-30 19:08 | 38.11445 | 17.72871 | 36092 ft | 403 kts | 253° |
| 2026-04-30 19:09 | 38.08229 | 17.63003 | 36092 ft | 403 kts | 253° |
| 2026-04-30 19:09 | 38.06443 | 17.57543 | 36094 ft | 403 kts | 253° |
| 2026-04-30 19:10 | 38.02145 | 17.44404 | 36093 ft | 403 kts | 253° |
| 2026-04-30 19:11 | 37.98909 | 17.34553 | 36095 ft | 403 kts | 253° |
| 2026-04-30 19:12 | 37.96752 | 17.27999 | 36097 ft | 403 kts | 253° |
| 2026-04-30 19:12 | 37.94586 | 17.21447 | 36094 ft | 403 kts | 253° |
| 2026-04-30 19:13 | 37.90259 | 17.08410 | 36095 ft | 403 kts | 253° |
| 2026-04-30 19:14 | 37.88085 | 17.01869 | 36092 ft | 403 kts | 253° |
| 2026-04-30 19:14 | 37.85911 | 16.95340 | 36103 ft | 402 kts | 253° |
| 2026-04-30 19:15 | 37.83733 | 16.88814 | 36101 ft | 402 kts | 253° |
| 2026-04-30 19:15 | 37.80453 | 16.79036 | 36104 ft | 402 kts | 253° |
| 2026-04-30 19:16 | 37.78262 | 16.72522 | 36097 ft | 402 kts | 253° |
| 2026-04-30 19:17 | 37.74970 | 16.62768 | 36097 ft | 402 kts | 253° |
| 2026-04-30 19:17 | 37.71690 | 16.53063 | 36097 ft | 402 kts | 253° |
| 2026-04-30 19:18 | 37.68392 | 16.43322 | 35898 ft | 402 kts | 253° |
| 2026-04-30 19:18 | 37.67291 | 16.40081 | 35646 ft | 402 kts | 253° |
| 2026-04-30 19:19 | 37.66185 | 16.36828 | 35396 ft | 402 kts | 253° |
| 2026-04-30 19:19 | 37.65079 | 16.33581 | 35149 ft | 403 kts | 253° |
| 2026-04-30 19:19 | 37.62854 | 16.27080 | 34668 ft | 404 kts | 253° |
| 2026-04-30 19:20 | 37.61738 | 16.23822 | 34181 ft | 405 kts | 253° |
| 2026-04-30 19:20 | 37.60678 | 16.20518 | 33274 ft | 404 kts | 258° |
| 2026-04-30 19:20 | 37.59712 | 16.13621 | 31433 ft | 401 kts | 268° |
| 2026-04-30 19:21 | 37.59427 | 16.10097 | 30518 ft | 404 kts | 268° |
| 2026-04-30 19:21 | 37.58841 | 16.03014 | 28355 ft | 412 kts | 267° |
| 2026-04-30 19:22 | 37.58248 | 15.95924 | 27032 ft | 401 kts | 267° |
| 2026-04-30 19:22 | 37.57425 | 15.85536 | 25008 ft | 391 kts | 272° |
| 2026-04-30 19:23 | 37.57525 | 15.75325 | 22997 ft | 385 kts | 273° |
| 2026-04-30 19:24 | 37.57588 | 15.68646 | 21815 ft | 378 kts | 273° |
| 2026-04-30 19:24 | 37.57614 | 15.65342 | 21238 ft | 375 kts | 273° |
| 2026-04-30 19:24 | 37.57661 | 15.58859 | 20177 ft | 369 kts | 272° |
| 2026-04-30 19:25 | 37.57720 | 15.50239 | 18830 ft | 363 kts | 272° |
| 2026-04-30 19:26 | 37.57764 | 15.43921 | 17836 ft | 357 kts | 272° |
| 2026-04-30 19:26 | 37.57774 | 15.37768 | 17256 ft | 340 kts | 271° |
| 2026-04-30 19:26 | 37.57738 | 15.34853 | 17115 ft | 322 kts | 271° |
| 2026-04-30 19:27 | 37.57644 | 15.29594 | 16830 ft | 281 kts | 271° |
| 2026-04-30 19:27 | 37.57563 | 15.24973 | 16405 ft | 251 kts | 271° |
| 2026-04-30 19:28 | 37.57531 | 15.22791 | 15953 ft | 247 kts | 272° |
| 2026-04-30 19:28 | 37.57471 | 15.18524 | 14998 ft | 243 kts | 272° |
| 2026-04-30 19:29 | 37.57400 | 15.14276 | 14025 ft | 242 kts | 270° |
| 2026-04-30 19:29 | 37.57265 | 15.12163 | 13505 ft | 241 kts | 267° |
| 2026-04-30 19:30 | 37.56708 | 15.05920 | 11989 ft | 237 kts | 267° |
| 2026-04-30 19:30 | 37.56350 | 15.01824 | 11001 ft | 233 kts | 267° |
| 2026-04-30 19:31 | 37.56006 | 14.97792 | 10037 ft | 230 kts | 267° |
| 2026-04-30 19:31 | 37.55837 | 14.95796 | 9480 ft | 228 kts | 266° |
| 2026-04-30 19:31 | 37.55504 | 14.91914 | 8744 ft | 223 kts | 266° |
| 2026-04-30 19:32 | 37.55340 | 14.90005 | 8581 ft | 218 kts | 266° |
| 2026-04-30 19:32 | 37.55176 | 14.88103 | 8455 ft | 218 kts | 266° |
| 2026-04-30 19:32 | 37.55012 | 14.86201 | 8329 ft | 219 kts | 266° |
| 2026-04-30 19:32 | 37.54848 | 14.84298 | 8202 ft | 219 kts | 266° |
| 2026-04-30 19:33 | 37.54682 | 14.82395 | 8075 ft | 218 kts | 265° |
| 2026-04-30 19:33 | 37.54516 | 14.80494 | 7952 ft | 218 kts | 265° |
| 2026-04-30 19:33 | 37.54353 | 14.78593 | 7826 ft | 218 kts | 266° |
| 2026-04-30 19:33 | 37.54191 | 14.76696 | 7703 ft | 218 kts | 265° |
| 2026-04-30 19:34 | 37.54028 | 14.74785 | 7582 ft | 226 kts | 265° |
| 2026-04-30 19:34 | 37.53853 | 14.72773 | 7453 ft | 234 kts | 265° |
| 2026-04-30 19:34 | 37.53492 | 14.68666 | 7211 ft | 236 kts | 265° |
| 2026-04-30 19:35 | 37.53312 | 14.66614 | 7086 ft | 236 kts | 265° |
| 2026-04-30 19:35 | 37.53132 | 14.64556 | 6966 ft | 236 kts | 265° |
| 2026-04-30 19:35 | 37.52952 | 14.62499 | 6851 ft | 236 kts | 265° |
| 2026-04-30 19:35 | 37.52771 | 14.60447 | 6723 ft | 236 kts | 265° |
| 2026-04-30 19:36 | 37.52591 | 14.58396 | 6607 ft | 236 kts | 265° |
| 2026-04-30 19:36 | 37.52410 | 14.56341 | 6481 ft | 236 kts | 265° |
| 2026-04-30 19:36 | 37.52046 | 14.52242 | 6231 ft | 235 kts | 265° |
| 2026-04-30 19:37 | 37.51866 | 14.50195 | 6098 ft | 235 kts | 265° |
| 2026-04-30 19:37 | 37.51684 | 14.48149 | 5975 ft | 235 kts | 265° |
| 2026-04-30 19:37 | 37.51312 | 14.46151 | 5847 ft | 236 kts | 242° |
| 2026-04-30 19:37 | 37.50159 | 14.44706 | 5719 ft | 240 kts | 206° |
| 2026-04-30 19:38 | 37.48523 | 14.44357 | 5596 ft | 243 kts | 175° |
| 2026-04-30 19:38 | 37.46858 | 14.44578 | 5470 ft | 244 kts | 174° |
| 2026-04-30 19:38 | 37.45165 | 14.44825 | 5344 ft | 245 kts | 173° |
| 2026-04-30 19:38 | 37.43496 | 14.45205 | 5216 ft | 244 kts | 156° |
| 2026-04-30 19:39 | 37.42186 | 14.46488 | 5096 ft | 240 kts | 122° |
| 2026-04-30 19:39 | 37.41658 | 14.48437 | 4973 ft | 237 kts | 88° |
| 2026-04-30 19:39 | 37.41886 | 14.50464 | 4989 ft | 236 kts | 78° |
| 2026-04-30 19:39 | 37.42110 | 14.52517 | 5014 ft | 237 kts | 82° |
| 2026-04-30 19:40 | 37.42279 | 14.54585 | 5018 ft | 237 kts | 82° |
| 2026-04-30 19:40 | 37.42433 | 14.56655 | 5020 ft | 237 kts | 83° |
| 2026-04-30 19:40 | 37.42558 | 14.58720 | 5023 ft | 237 kts | 83° |
| 2026-04-30 19:40 | 37.42717 | 14.60777 | 5020 ft | 236 kts | 82° |
| 2026-04-30 19:41 | 37.42897 | 14.62835 | 5024 ft | 237 kts | 82° |
| 2026-04-30 19:41 | 37.43080 | 14.64898 | 5023 ft | 237 kts | 82° |
| 2026-04-30 19:41 | 37.43261 | 14.66958 | 4969 ft | 239 kts | 82° |
| 2026-04-30 19:41 | 37.43442 | 14.69020 | 4730 ft | 235 kts | 82° |
| 2026-04-30 19:42 | 37.43619 | 14.71047 | 4521 ft | 232 kts | 83° |
| 2026-04-30 19:42 | 37.43793 | 14.73031 | 4326 ft | 230 kts | 83° |
| 2026-04-30 19:42 | 37.43967 | 14.75022 | 4128 ft | 227 kts | 83° |
| 2026-04-30 19:42 | 37.44138 | 14.76987 | 3933 ft | 224 kts | 83° |
| 2026-04-30 19:43 | 37.44307 | 14.78932 | 3741 ft | 223 kts | 83° |
| 2026-04-30 19:43 | 37.44472 | 14.80840 | 3552 ft | 217 kts | 83° |
| 2026-04-30 19:43 | 37.44633 | 14.82704 | 3365 ft | 211 kts | 84° |
| 2026-04-30 19:44 | 37.44936 | 14.86206 | 3056 ft | 190 kts | 83° |
| 2026-04-30 19:44 | 37.45072 | 14.87797 | 2805 ft | 177 kts | 84° |
| 2026-04-30 19:44 | 37.45198 | 14.89262 | 2592 ft | 158 kts | 84° |
| 2026-04-30 19:44 | 37.45310 | 14.90565 | 2380 ft | 142 kts | 83° |
| 2026-04-30 19:45 | 37.45413 | 14.91769 | 2202 ft | 136 kts | 84° |
| 2026-04-30 19:45 | 37.45514 | 14.92946 | 2014 ft | 135 kts | 83° |
| 2026-04-30 19:45 | 37.45614 | 14.94113 | 1839 ft | 133 kts | 84° |
| 2026-04-30 19:45 | 37.45713 | 14.95265 | 1658 ft | 133 kts | 84° |
| 2026-04-30 19:46 | 37.45811 | 14.96423 | 1483 ft | 133 kts | 85° |
| 2026-04-30 19:46 | 37.45910 | 14.97578 | 1300 ft | 133 kts | 83° |
| 2026-04-30 19:46 | 37.46008 | 14.98741 | 1132 ft | 133 kts | 83° |
| 2026-04-30 19:46 | 37.46101 | 14.99902 | 981 ft | 134 kts | 83° |
| 2026-04-30 19:47 | 37.46213 | 15.01064 | 833 ft | 134 kts | 83° |
| 2026-04-30 19:47 | 37.46282 | 15.01837 | 725 ft | 134 kts | 81° |
| 2026-04-30 19:47 | 37.46401 | 15.03392 | 400 ft | 133 kts | 82° |
| 2026-04-30 19:47 | 37.46501 | 15.04548 | 231 ft | 133 kts | 83° |
| 2026-04-30 19:48 | 37.46602 | 15.05700 | 37 ft | 130 kts | 82° |
| 2026-04-30 19:48 | 37.46684 | 15.06695 | 21 ft | 93 kts | 84° |
| 2026-04-30 19:48 | 37.46733 | 15.07291 | 22 ft | 44 kts | 84° |
| 2026-04-30 19:48 | 37.46773 | 15.07608 | 23 ft | 34 kts | 64° |
| 2026-04-30 19:49 | 37.46872 | 15.07795 | 22 ft | 16 kts | 39° |
| 2026-04-30 19:49 | 37.46928 | 15.07632 | 22 ft | 12 kts | 264° |
| 2026-04-30 19:49 | 37.46912 | 15.07444 | 22 ft | 28 kts | 264° |
| 2026-04-30 19:50 | 37.46891 | 15.07198 | 22 ft | 29 kts | 264° |
| 2026-04-30 19:50 | 37.46872 | 15.06975 | 22 ft | 20 kts | 264° |
| 2026-04-30 19:50 | 37.46860 | 15.06818 | 22 ft | 11 kts | 263° |
| 2026-04-30 19:50 | 37.46870 | 15.06774 | 23 ft | 2 kts | 336° |
| 2026-04-30 19:51 | 37.46905 | 15.06766 | 22 ft | 5 kts | 354° |
| 2026-04-30 19:51 | 37.46930 | 15.06763 | 24 ft | 4 kts | 354° |
| 2026-04-30 19:51 | 37.46935 | 15.06762 | 23 ft | 0 kts | 354° |